createdAt,value
2019-04-06T00:02:23.136Z,101.70
2019-04-06T00:04:51.178Z,103.20
2019-04-06T00:07:19.322Z,103.67
2019-04-06T00:09:47.809Z,108.67
2019-04-06T00:12:16.070Z,101.30
2019-04-06T00:14:44.505Z,106.33
2019-04-06T00:17:12.708Z,106.70
2019-04-06T00:19:41.856Z,105.50
2019-04-06T00:22:10.099Z,109.27
2019-04-06T00:24:38.338Z,113.33
2019-04-06T00:27:06.539Z,111.60
2019-04-06T00:29:34.687Z,106.00
2019-04-06T00:32:34.867Z,114.30
2019-04-06T00:35:04.595Z,111.13
2019-04-06T00:37:32.802Z,114.70
2019-04-06T00:40:00.993Z,103.03
2019-04-06T00:42:29.520Z,119.40
2019-04-06T00:44:57.919Z,108.80
2019-04-06T00:47:26.082Z,112.27
2019-04-06T00:49:54.233Z,113.33
2019-04-06T00:52:22.423Z,117.40
2019-04-06T00:54:50.629Z,114.40
2019-04-06T00:57:18.721Z,114.13
2019-04-06T00:59:46.957Z,117.27
2019-04-06T01:02:15.063Z,115.63
2019-04-06T01:04:43.380Z,116.90
2019-04-06T01:07:11.540Z,121.37
2019-04-06T01:09:41.678Z,121.80
2019-04-06T01:12:09.814Z,120.73
2019-04-06T01:14:38.224Z,114.80
2019-04-06T01:17:07.755Z,128.27
2019-04-06T01:19:36.055Z,113.43
2019-04-06T01:22:04.352Z,117.63
2019-04-06T01:24:32.513Z,126.87
2019-04-06T01:27:00.792Z,120.03
2019-04-06T01:29:29.228Z,125.70
2019-04-06T01:31:59.315Z,119.57
2019-04-06T01:34:27.518Z,118.03
2019-04-06T01:36:55.718Z,111.23
2019-04-06T01:39:24.050Z,111.37
2019-04-06T01:41:53.688Z,106.53
2019-04-06T01:44:22.074Z,113.97
2019-04-06T01:46:50.289Z,113.50
2019-04-06T01:49:18.629Z,112.50
2019-04-06T01:51:46.855Z,126.07
2019-04-06T01:54:14.975Z,107.17
2019-04-06T01:56:43.250Z,115.77
2019-04-06T01:59:11.519Z,119.80
2019-04-06T02:01:44.159Z,107.07
2019-04-06T02:04:12.326Z,113.60
2019-04-06T02:06:40.629Z,110.47
2019-04-06T02:09:08.706Z,114.00
2019-04-06T02:11:36.871Z,110.90
2019-04-06T02:14:05.197Z,110.13
2019-04-06T02:16:34.451Z,113.73
2019-04-06T02:19:03.262Z,111.10
2019-04-06T02:21:31.762Z,113.83
2019-04-06T02:24:00.023Z,108.77
2019-04-06T02:26:30.933Z,106.10
2019-04-06T02:28:59.212Z,104.07
2019-04-06T02:31:53.147Z,112.87
2019-04-06T02:34:32.845Z,100.53
2019-04-06T02:37:20.754Z,111.07
2019-04-06T02:40:08.503Z,107.30
2019-04-06T02:42:41.843Z,106.93
2019-04-06T02:45:10.329Z,102.37
2019-04-06T02:47:38.537Z,101.50
2019-04-06T02:50:07.126Z,111.63
2019-04-06T02:52:35.298Z,110.17
2019-04-06T02:55:04.344Z,106.97
2019-04-06T02:57:33.795Z,109.50
2019-04-06T03:00:02.201Z,109.87
2019-04-06T03:02:32.073Z,107.03
2019-04-06T03:05:00.537Z,106.43
2019-04-06T03:07:29.991Z,105.10
2019-04-06T03:09:58.513Z,111.20
2019-04-06T03:12:28.432Z,111.60
2019-04-06T03:14:56.793Z,107.67
2019-04-06T03:17:25.037Z,108.80
2019-04-06T03:19:53.382Z,109.03
2019-04-06T03:22:21.629Z,101.97
2019-04-06T03:24:49.806Z,115.53
2019-04-06T03:27:17.923Z,105.83
2019-04-06T03:29:57.473Z,115.30
2019-04-06T03:32:16.274Z,107.33
2019-04-06T03:34:44.570Z,110.37
2019-04-06T03:37:12.917Z,113.80
2019-04-06T03:39:41.290Z,118.03
2019-04-06T03:42:11.201Z,110.10
2019-04-06T03:44:39.705Z,118.77
2019-04-06T03:47:07.953Z,118.17
2019-04-06T03:49:36.161Z,113.73
2019-04-06T03:52:04.296Z,107.87
2019-04-06T03:54:32.405Z,114.37
2019-04-06T03:57:13.697Z,112.00
2019-04-06T03:59:32.031Z,98.13
2019-04-06T04:02:00.202Z,103.13
2019-04-06T04:04:28.373Z,107.87
2019-04-06T04:06:56.603Z,111.77
2019-04-06T04:09:25.147Z,111.03
2019-04-06T04:11:53.411Z,105.37
2019-04-06T04:14:21.864Z,113.60
2019-04-06T04:16:51.682Z,119.67
2019-04-06T04:19:19.785Z,112.30
2019-04-06T04:21:47.884Z,112.60
2019-04-06T04:24:15.961Z,113.77
2019-04-06T04:26:46.266Z,103.13
2019-04-06T04:29:14.433Z,112.13
2019-04-06T04:31:42.571Z,108.90
2019-04-06T04:34:10.805Z,112.60
2019-04-06T04:36:39.129Z,114.90
2019-04-06T04:39:08.123Z,119.33
2019-04-06T04:41:39.202Z,114.20
2019-04-06T04:44:06.367Z,112.07
2019-04-06T04:46:34.722Z,105.43
2019-04-06T04:49:02.993Z,114.53
2019-04-06T04:51:33.704Z,111.67
2019-04-06T04:54:01.769Z,125.50
2019-04-06T04:56:32.749Z,119.70
2019-04-06T04:59:01.151Z,115.50
2019-04-06T05:01:29.297Z,122.33
2019-04-06T05:03:57.572Z,118.50
2019-04-06T05:06:25.761Z,129.97
2019-04-06T05:08:53.877Z,130.30
2019-04-06T05:11:22.025Z,126.00
2019-04-06T05:14:11.519Z,134.50
2019-04-06T05:16:39.688Z,129.33
2019-04-06T05:19:07.975Z,130.37
2019-04-06T05:21:36.148Z,133.83
2019-04-06T05:24:04.246Z,129.07
2019-04-06T05:26:37.493Z,128.63
2019-04-06T05:29:02.330Z,128.47
2019-04-06T05:31:31.445Z,130.03
2019-04-06T05:33:59.690Z,122.13
2019-04-06T05:36:27.768Z,123.40
2019-04-06T05:38:55.879Z,126.03
2019-04-06T05:41:23.892Z,123.57
2019-04-06T05:43:52.027Z,129.37
2019-04-06T05:46:20.109Z,126.30
2019-04-06T05:48:49.356Z,136.37
2019-04-06T05:51:17.856Z,119.33
2019-04-06T05:53:45.999Z,119.57
2019-04-06T05:56:14.117Z,118.97
2019-04-06T05:58:44.237Z,123.83
2019-04-06T06:01:12.551Z,121.67
2019-04-06T06:03:41.642Z,126.27
2019-04-06T06:06:12.341Z,125.60
2019-04-06T06:08:40.051Z,124.20
2019-04-06T06:11:08.102Z,127.47
2019-04-06T06:13:36.303Z,135.97
2019-04-06T06:16:04.602Z,127.87
2019-04-06T06:18:32.701Z,138.57
2019-04-06T06:21:01.013Z,134.77
2019-04-06T06:23:29.341Z,136.43
2019-04-06T06:25:57.482Z,145.77
2019-04-06T06:28:28.843Z,140.60
2019-04-06T06:31:00.735Z,149.07
2019-04-06T06:33:31.010Z,147.37
2019-04-06T06:36:00.580Z,143.43
2019-04-06T06:38:28.850Z,147.60
2019-04-06T06:40:56.966Z,135.63
2019-04-06T06:43:25.209Z,138.47
2019-04-06T06:45:53.525Z,136.53
2019-04-06T06:48:22.992Z,133.33
2019-04-06T06:50:55.512Z,133.27
2019-04-06T06:53:23.689Z,135.23
2019-04-06T06:55:53.286Z,139.37
2019-04-06T06:58:25.621Z,138.67
2019-04-06T07:00:51.996Z,133.00
2019-04-06T07:03:20.134Z,118.10
2019-04-06T07:05:48.309Z,126.67
2019-04-06T07:08:17.246Z,127.63
2019-04-06T07:10:45.510Z,127.07
2019-04-06T07:13:13.692Z,130.47
2019-04-06T07:15:43.202Z,125.60
2019-04-06T07:18:11.999Z,127.67
2019-04-06T07:20:40.698Z,133.53
2019-04-06T07:23:08.999Z,121.37
2019-04-06T07:25:37.175Z,120.70
2019-04-06T07:28:07.840Z,132.27
2019-04-06T07:30:36.158Z,120.17
2019-04-06T07:33:04.319Z,119.60
2019-04-06T07:35:32.430Z,121.07
2019-04-06T07:38:00.868Z,117.73
2019-04-06T07:40:28.999Z,120.40
2019-04-06T07:42:57.110Z,113.90
2019-04-06T07:45:25.295Z,117.07
2019-04-06T07:47:53.476Z,113.40
2019-04-06T07:50:21.637Z,109.67
2019-04-06T07:52:49.892Z,114.90
2019-04-06T07:55:18.339Z,112.40
2019-04-06T07:57:46.442Z,110.80
2019-04-06T08:00:15.722Z,107.17
2019-04-06T08:02:43.915Z,107.47
2019-04-06T08:05:12.473Z,106.23
2019-04-06T08:07:40.924Z,105.40
2019-04-06T08:10:11.393Z,102.10
2019-04-06T08:12:39.766Z,110.27
2019-04-06T08:15:08.219Z,93.77
2019-04-06T08:17:36.532Z,93.33
2019-04-06T08:20:06.039Z,86.87
2019-04-06T08:22:35.633Z,90.60
2019-04-06T08:25:04.195Z,93.23
2019-04-06T08:27:32.433Z,90.33
2019-04-06T08:30:00.530Z,83.63
2019-04-06T08:32:29.570Z,91.20
2019-04-06T08:34:57.879Z,85.50
2019-04-06T08:37:26.059Z,87.87
2019-04-06T08:39:54.543Z,92.50
2019-04-06T08:42:22.819Z,87.63
2019-04-06T08:44:50.924Z,88.17
2019-04-06T08:47:19.053Z,89.67
2019-04-06T08:49:47.194Z,88.33
2019-04-06T08:52:15.360Z,87.07
2019-04-06T08:54:43.482Z,88.53
2019-04-06T08:57:11.814Z,95.73
2019-04-06T08:59:40.113Z,89.03
2019-04-06T09:02:08.783Z,82.53
2019-04-06T09:04:37.195Z,85.10
2019-04-06T09:07:05.425Z,87.00
2019-04-06T09:09:33.589Z,81.77
2019-04-06T09:12:01.673Z,79.97
2019-04-06T09:14:29.869Z,85.30
2019-04-06T09:16:58.014Z,78.30
2019-04-06T09:19:27.076Z,83.60
2019-04-06T09:21:55.179Z,83.00
2019-04-06T09:24:23.549Z,83.83
2019-04-06T09:26:51.683Z,79.93
2019-04-06T09:29:23.902Z,81.10
2019-04-06T09:31:50.163Z,83.13
2019-04-06T09:34:19.341Z,79.50
2019-04-06T09:36:47.610Z,82.33
2019-04-06T09:39:15.953Z,83.10
2019-04-06T09:41:44.186Z,80.53
2019-04-06T09:44:21.511Z,81.57
2019-04-06T09:47:12.382Z,77.27
2019-04-06T09:50:03.384Z,78.67
2019-04-06T09:52:50.169Z,73.20
2019-04-06T09:55:28.533Z,72.93
2019-04-06T09:58:22.347Z,73.43
2019-04-06T10:00:59.305Z,73.53
2019-04-06T10:03:52.737Z,75.13
2019-04-06T10:06:46.439Z,69.23
2019-04-06T10:09:29.371Z,72.10
2019-04-06T10:12:16.823Z,77.43
2019-04-06T10:15:08.529Z,70.60
2019-04-06T10:17:52.270Z,66.80
2019-04-06T10:20:31.835Z,66.23
2019-04-06T10:23:37.491Z,66.03
2019-04-06T10:26:28.295Z,64.57
2019-04-06T10:29:14.879Z,67.87
2019-04-06T10:32:14.657Z,67.07
2019-04-06T10:35:08.931Z,67.63
2019-04-06T10:37:47.800Z,62.90
2019-04-06T10:40:37.537Z,58.37
2019-04-06T10:43:31.107Z,62.13
2019-04-06T10:46:33.775Z,60.57
2019-04-06T10:49:21.358Z,59.93
2019-04-06T10:52:11.818Z,53.97
2019-04-06T10:54:58.122Z,52.27
2019-04-06T10:57:33.336Z,53.23
2019-04-06T11:00:19.852Z,49.90
2019-04-06T11:03:05.043Z,53.40
2019-04-06T11:05:51.037Z,49.00
2019-04-06T11:08:41.618Z,48.07
2019-04-06T11:11:41.176Z,46.77
2019-04-06T11:14:43.807Z,47.93
2019-04-06T11:17:34.689Z,47.67
2019-04-06T11:20:23.104Z,47.17
2019-04-06T11:23:23.061Z,42.87
2019-04-06T11:26:09.308Z,40.10
2019-04-06T11:28:55.185Z,44.60
2019-04-06T11:31:39.779Z,41.13
2019-04-06T11:34:43.408Z,44.33
2019-04-06T11:37:25.863Z,40.10
2019-04-06T11:40:13.722Z,43.87
2019-04-06T11:43:07.604Z,45.23
2019-04-06T11:45:54.198Z,40.55
2019-04-06T11:48:45.727Z,44.40
2019-04-06T11:51:35.243Z,37.87
2019-04-06T11:54:23.305Z,39.10
2019-04-06T11:57:05.893Z,34.70
2019-04-06T11:59:43.609Z,35.97
2019-04-06T12:02:37.226Z,35.73
2019-04-06T12:05:19.093Z,35.90
2019-04-06T12:08:07.029Z,37.77
2019-04-06T12:10:49.896Z,38.87
2019-04-06T12:13:50.156Z,31.97
2019-04-06T12:16:47.681Z,32.88
2019-04-06T12:19:31.042Z,35.80
2019-04-06T12:22:08.426Z,37.97
2019-04-06T12:24:57.403Z,39.40
2019-04-06T12:27:54.877Z,35.77
2019-04-06T12:30:37.964Z,32.93
2019-04-06T12:33:23.452Z,31.80
2019-04-06T12:36:17.175Z,35.03
2019-04-06T12:39:03.433Z,34.85
2019-04-06T12:41:43.780Z,36.67
2019-04-06T12:44:44.423Z,36.17
2019-04-06T12:47:41.239Z,35.45
2019-04-06T12:50:29.132Z,33.07
2019-04-06T12:53:23.009Z,35.67
2019-04-06T12:55:57.148Z,34.58
2019-04-06T12:58:38.606Z,33.92
2019-04-06T13:01:26.297Z,32.83
2019-04-06T13:04:05.027Z,30.35
2019-04-06T13:06:51.494Z,34.25
2019-04-06T13:09:37.523Z,40.55
2019-04-06T13:12:40.042Z,39.05
2019-04-06T13:15:32.762Z,35.70
2019-04-06T13:18:12.390Z,36.13
2019-04-06T13:21:12.456Z,31.77
2019-04-06T13:23:57.146Z,31.05
2019-04-06T13:26:45.025Z,30.27
2019-04-06T13:29:35.816Z,29.02
2019-04-06T13:32:26.521Z,32.67
2019-04-06T13:35:14.424Z,35.52
2019-04-06T13:37:59.352Z,38.38
2019-04-06T13:40:45.289Z,34.75
2019-04-06T13:43:34.855Z,36.38
2019-04-06T13:46:12.030Z,33.10
2019-04-06T13:48:58.069Z,31.17
2019-04-06T13:51:44.269Z,30.63
2019-04-06T13:54:30.772Z,31.33
2019-04-06T13:57:24.579Z,31.65
2019-04-06T14:00:02.763Z,31.27
2019-04-06T14:02:56.329Z,31.17
2019-04-06T14:05:46.779Z,29.75
2019-04-06T14:08:37.793Z,27.40
2019-04-06T14:11:24.274Z,28.87
2019-04-06T14:14:14.522Z,24.32
2019-04-06T14:16:54.646Z,26.20
2019-04-06T14:19:43.461Z,24.95
2019-04-06T14:22:34.284Z,24.92
2019-04-06T14:25:27.802Z,25.57
2019-04-06T14:28:16.387Z,26.75
2019-04-06T14:30:57.741Z,26.67
2019-04-06T14:33:51.656Z,28.32
2019-04-06T14:36:42.757Z,22.95
2019-04-06T14:39:33.305Z,24.02
2019-04-06T14:42:17.038Z,25.77
2019-04-06T14:45:22.702Z,27.55
2019-04-06T14:48:13.323Z,27.32
2019-04-06T14:50:58.471Z,22.35
2019-04-06T14:53:49.104Z,25.52
2019-04-06T14:56:33.081Z,22.07
2019-04-06T14:59:20.054Z,23.83
2019-04-06T15:02:26.327Z,21.97
2019-04-06T15:05:16.803Z,20.90
2019-04-06T15:08:13.617Z,23.42
2019-04-06T15:11:10.540Z,23.30
2019-04-06T15:14:06.216Z,25.77
2019-04-06T15:16:49.249Z,23.40
2019-04-06T15:19:46.568Z,21.90
2019-04-06T15:22:46.657Z,19.57
2019-04-06T15:25:28.407Z,20.13
2019-04-06T15:28:11.087Z,29.92
2019-04-06T15:31:07.712Z,31.48
2019-04-06T15:33:48.079Z,30.52
2019-04-06T15:36:26.413Z,35.88
2019-04-06T15:39:14.172Z,35.20
2019-04-06T15:42:08.672Z,39.15
2019-04-06T15:44:55.236Z,36.57
2019-04-06T15:47:34.298Z,35.45
2019-04-06T15:50:21.887Z,42.00
2019-04-06T15:53:12.801Z,39.25
2019-04-06T15:56:01.664Z,38.95
2019-04-06T15:58:37.970Z,40.30
2019-04-06T16:01:31.865Z,35.60
2019-04-06T16:04:18.229Z,36.98
2019-04-06T16:07:04.664Z,37.40
2019-04-06T16:09:45.669Z,35.67
2019-04-06T16:12:42.515Z,36.23
2019-04-06T16:15:39.496Z,38.30
2019-04-06T16:18:16.809Z,39.63
2019-04-06T16:20:53.524Z,38.02
2019-04-06T16:23:37.037Z,41.30
2019-04-06T16:26:17.549Z,40.50
2019-04-06T16:29:05.329Z,35.05
2019-04-06T16:31:51.618Z,39.18
2019-04-06T16:34:40.877Z,41.40
2019-04-06T16:37:15.753Z,35.37
2019-04-06T16:40:06.362Z,40.52
2019-04-06T16:42:48.797Z,37.03
2019-04-06T16:45:42.597Z,40.87
2019-04-06T16:48:36.851Z,40.17
2019-04-06T16:51:27.252Z,40.35
2019-04-06T16:54:15.010Z,38.60
2019-04-06T16:56:49.055Z,40.33
2019-04-06T16:59:42.789Z,38.57
2019-04-06T17:02:29.784Z,35.40
2019-04-06T17:05:06.566Z,35.37
2019-04-06T17:08:12.917Z,40.70
2019-04-06T17:11:01.201Z,38.37
2019-04-06T17:13:36.756Z,38.83
2019-04-06T17:16:30.282Z,36.35
2019-04-06T17:19:16.652Z,37.93
2019-04-06T17:21:50.159Z,38.83
2019-04-06T17:24:37.951Z,37.43
2019-04-06T17:27:25.835Z,40.57
2019-04-06T17:30:05.516Z,41.47
2019-04-06T17:32:49.474Z,43.63
2019-04-06T17:35:46.198Z,47.00
2019-04-06T17:38:48.984Z,47.73
2019-04-06T17:41:39.689Z,43.63
2019-04-06T17:44:19.913Z,46.77
2019-04-06T17:47:06.248Z,46.43
2019-04-06T17:50:07.500Z,40.20
2019-04-06T17:53:04.954Z,51.67
2019-04-06T17:55:50.845Z,42.47
2019-04-06T17:58:31.685Z,43.63
2019-04-06T18:01:17.481Z,40.20
2019-04-06T18:04:11.564Z,42.63
2019-04-06T18:07:05.910Z,44.53
2019-04-06T18:09:39.011Z,43.17
2019-04-06T18:12:13.702Z,49.87
2019-04-06T18:14:42.925Z,50.73
2019-04-06T18:17:13.881Z,49.30
2019-04-06T18:19:42.974Z,43.53
2019-04-06T18:22:11.247Z,47.37
2019-04-06T18:24:45.034Z,44.63
2019-04-06T18:27:13.197Z,51.40
2019-04-06T18:29:41.484Z,46.40
2019-04-06T18:32:32.598Z,45.73
2019-04-06T18:35:01.805Z,49.03
2019-04-06T18:37:44.748Z,40.97
2019-04-06T18:40:20.178Z,44.77
2019-04-06T18:42:48.540Z,43.67
2019-04-06T18:45:16.822Z,42.63
2019-04-06T18:47:46.228Z,46.00
2019-04-06T18:50:15.715Z,44.37
2019-04-06T18:52:44.626Z,44.53
2019-04-06T18:55:14.154Z,44.80
2019-04-06T18:57:43.544Z,43.53
2019-04-06T19:00:16.023Z,46.27
2019-04-06T19:02:44.646Z,43.80
2019-04-06T19:05:14.073Z,46.93
2019-04-06T19:07:42.904Z,45.47
2019-04-06T19:10:12.118Z,43.20
2019-04-06T19:12:40.755Z,47.77
2019-04-06T19:15:10.688Z,44.77
2019-04-06T19:17:39.480Z,46.33
2019-04-06T19:20:10.459Z,47.53
2019-04-06T19:22:38.774Z,51.43
2019-04-06T19:25:09.725Z,50.43
2019-04-06T19:27:38.473Z,50.03
2019-04-06T19:30:10.074Z,51.13
2019-04-06T19:32:38.967Z,48.73
2019-04-06T19:35:07.686Z,46.77
2019-04-06T19:37:37.789Z,51.87
2019-04-06T19:40:08.432Z,45.90
2019-04-06T19:42:36.727Z,51.27
2019-04-06T19:45:07.523Z,49.73
2019-04-06T19:47:36.401Z,50.80
2019-04-06T19:50:06.996Z,53.47
2019-04-06T19:52:35.881Z,52.77
2019-04-06T19:55:05.084Z,58.00
2019-04-06T19:57:33.935Z,49.73
2019-04-06T20:00:05.685Z,50.80
2019-04-06T20:02:34.276Z,50.13
2019-04-06T20:05:03.793Z,53.07
2019-04-06T20:07:33.228Z,52.60
2019-04-06T20:10:02.778Z,48.70
2019-04-06T20:12:32.291Z,52.23
2019-04-06T20:15:00.540Z,56.20
2019-04-06T20:17:28.848Z,55.17
2019-04-06T20:19:57.502Z,48.43
2019-04-06T20:22:25.834Z,57.77
2019-04-06T20:24:54.178Z,54.83
2019-04-06T20:27:22.364Z,56.57
2019-04-06T20:29:50.920Z,55.53
2019-04-06T20:32:19.355Z,56.63
2019-04-06T20:34:49.398Z,55.33
2019-04-06T20:37:20.439Z,57.33
2019-04-06T20:39:49.171Z,55.23
2019-04-06T20:42:19.997Z,53.70
2019-04-06T20:44:48.234Z,61.53
2019-04-06T20:47:16.791Z,57.57
2019-04-06T20:49:45.192Z,57.93
2019-04-06T20:52:15.323Z,60.90
2019-04-06T20:54:43.650Z,58.33
2019-04-06T20:57:11.963Z,61.23
2019-04-06T20:59:43.822Z,59.67
2019-04-06T21:02:15.017Z,62.90
2019-04-06T21:04:43.362Z,59.20
2019-04-06T21:07:11.432Z,62.53
2019-04-06T21:09:39.713Z,61.17
2019-04-06T21:12:10.485Z,61.43
2019-04-06T21:14:38.929Z,66.93
2019-04-06T21:17:07.879Z,62.17
2019-04-06T21:19:36.170Z,66.37
2019-04-06T21:22:04.257Z,68.23
2019-04-06T21:24:32.875Z,69.90
2019-04-06T21:27:01.281Z,61.37
2019-04-06T21:29:29.669Z,66.13
2019-04-06T21:31:59.409Z,62.90
2019-04-06T21:34:30.443Z,66.03
2019-04-06T21:36:58.714Z,65.70
2019-04-06T21:39:26.963Z,66.03
2019-04-06T21:41:55.354Z,67.40
2019-04-06T21:44:27.674Z,66.90
2019-04-06T21:46:57.645Z,64.07
2019-04-06T21:49:27.080Z,67.80
2019-04-06T21:51:55.586Z,63.20
2019-04-06T21:54:23.998Z,71.70
2019-04-06T21:56:52.378Z,66.80
2019-04-06T21:59:20.885Z,62.37
2019-04-06T22:01:49.275Z,66.27
2019-04-06T22:04:23.585Z,62.43
2019-04-06T22:06:47.604Z,65.37
2019-04-06T22:09:16.378Z,71.53
2019-04-06T22:11:44.677Z,67.37
2019-04-06T22:14:12.875Z,65.73
2019-04-06T22:16:41.730Z,67.90
2019-04-06T22:19:10.230Z,61.90
2019-04-06T22:21:40.415Z,65.70
2019-04-06T22:24:08.544Z,67.07
2019-04-06T22:26:36.724Z,63.73
2019-04-06T22:29:06.598Z,73.30
2019-04-06T22:31:35.120Z,66.77
2019-04-06T22:34:05.712Z,67.67
2019-04-06T22:36:33.825Z,71.03
2019-04-06T22:39:02.004Z,69.20
2019-04-06T22:41:33.231Z,71.10
2019-04-06T22:44:01.779Z,76.93
2019-04-06T22:46:30.152Z,70.73
2019-04-06T22:48:58.543Z,72.97
2019-04-06T22:51:28.838Z,76.87
2019-04-06T22:53:56.998Z,67.63
2019-04-06T22:56:25.068Z,68.57
2019-04-06T22:58:53.717Z,72.60
2019-04-06T23:01:23.260Z,68.73
2019-04-06T23:04:09.325Z,69.67
2019-04-06T23:06:51.491Z,74.07
2019-04-06T23:09:20.114Z,72.13
2019-04-06T23:11:48.284Z,69.80
2019-04-06T23:14:16.907Z,77.17
2019-04-06T23:16:45.972Z,72.40
2019-04-06T23:19:14.334Z,70.30
2019-04-06T23:21:43.068Z,74.33
2019-04-06T23:24:11.290Z,68.47
2019-04-06T23:26:39.813Z,75.57
2019-04-06T23:29:08.737Z,69.27
2019-04-06T23:31:37.145Z,68.87
2019-04-06T23:34:05.358Z,71.73
2019-04-06T23:36:34.505Z,72.67
2019-04-06T23:39:04.561Z,71.80
2019-04-06T23:41:33.547Z,70.43
2019-04-06T23:44:01.695Z,72.97
2019-04-06T23:46:30.154Z,71.77
2019-04-06T23:48:58.957Z,72.20
2019-04-06T23:51:27.834Z,69.73
2019-04-06T23:53:56.233Z,71.60
2019-04-06T23:56:24.368Z,73.67
2019-04-06T23:58:52.475Z,75.17
